Time;durP1;ratioP1;P1;durP2;ratioP2;P2;SDS_P1;SDS_P2;PMS_P1;PMS_P2;Temp;Humidity;BMP_temperature;BMP_pressure;BME280_temperature;BME280_humidity;BME280_pressure;Samples;Min_cycle;Max_cycle;Signal;HPM_P1;HPM_P2
2023/12/15 00:01:06;;;;;;;6.80;6.10;;;;;;;11.04;53.79;101349.38;106953;1270;25458;-55
2023/12/15 00:03:34;;;;;;;7.60;6.80;;;;;;;11.02;53.93;101360.52;107053;1267;25347;-55
2023/12/15 00:06:02;;;;;;;6.20;5.60;;;;;;;11.00;53.88;101360.52;106918;1266;22598;-55
2023/12/15 00:08:29;;;;;;;11.30;8.60;;;;;;;10.99;53.63;101371.48;106841;1257;25424;-55
2023/12/15 00:10:56;;;;;;;7.50;6.30;;;;;;;10.96;53.57;101376.21;106980;1254;25347;-55
2023/12/15 00:13:24;;;;;;;7.20;6.00;;;;;;;10.95;53.59;101378.83;107101;1256;25344;-54
2023/12/15 00:15:51;;;;;;;6.20;5.60;;;;;;;10.93;53.58;101380.75;106870;1256;25464;-54
2023/12/15 00:18:18;;;;;;;6.30;5.60;;;;;;;10.92;53.55;101366.55;106922;1255;25360;-54
2023/12/15 00:20:45;;;;;;;8.10;5.70;;;;;;;10.90;53.56;101358.58;106582;1272;25487;-54
2023/12/15 00:23:12;;;;;;;6.70;6.00;;;;;;;10.90;53.62;101353.54;106854;1257;25375;-54
2023/12/15 00:25:39;;;;;;;6.90;6.00;;;;;;;10.87;53.41;101358.27;106864;1263;24347;-55
2023/12/15 00:28:06;;;;;;;7.10;6.20;;;;;;;10.86;53.40;101364.20;106346;1256;1003369;-54
2023/12/15 00:30:33;;;;;;;7.00;6.00;;;;;;;10.84;53.43;101370.47;107046;1254;25398;-54
2023/12/15 00:33:00;;;;;;;6.60;5.90;;;;;;;10.81;53.39;101383.34;107064;1257;25398;-54
2023/12/15 00:35:27;;;;;;;6.40;5.80;;;;;;;10.81;53.46;101394.98;107150;1257;25347;-54
2023/12/15 00:37:55;;;;;;;8.50;5.90;;;;;;;10.80;53.25;101393.27;106861;1259;25375;-54
2023/12/15 00:40:23;;;;;;;7.30;5.70;;;;;;;10.79;53.40;101377.30;106665;1267;22517;-56
2023/12/15 00:42:50;;;;;;;7.10;6.10;;;;;;;10.80;53.33;101354.73;106912;1255;25344;-57
2023/12/15 00:45:17;;;;;;;6.80;5.40;;;;;;;10.79;53.20;101350.59;107121;1257;25356;-55
2023/12/15 00:47:44;;;;;;;6.40;5.70;;;;;;;10.77;53.20;101361.53;107164;1257;25408;-55
2023/12/15 00:50:12;;;;;;;5.90;5.30;;;;;;;10.77;53.35;101378.21;106953;1257;24322;-54
2023/12/15 00:52:39;;;;;;;6.70;5.70;;;;;;;10.74;52.92;101388.30;106907;1263;25360;-54
2023/12/15 00:55:06;;;;;;;8.00;5.30;;;;;;;10.72;52.95;101393.36;105876;1266;1003244;-54
2023/12/15 00:57:33;;;;;;;8.20;5.40;;;;;;;10.69;53.04;101394.61;106751;1254;22520;-54
2023/12/15 01:00:01;;;;;;;7.60;5.50;;;;;;;10.67;53.06;101403.13;106722;1254;25406;-54
2023/12/15 01:02:28;;;;;;;7.00;5.70;;;;;;;10.67;53.36;101398.80;106916;1263;25359;-54
2023/12/15 01:04:55;;;;;;;7.10;5.40;;;;;;;10.67;53.40;101385.61;107165;1263;25799;-54
2023/12/15 01:07:23;;;;;;;6.00;5.40;;;;;;;10.67;53.51;101392.04;106895;1269;25357;-54
2023/12/15 01:09:50;;;;;;;6.00;5.40;;;;;;;10.68;53.38;101389.94;107106;1267;22537;-54
2023/12/15 01:12:17;;;;;;;5.90;5.30;;;;;;;10.68;53.22;101399.31;107060;1257;25347;-54
2023/12/15 01:14:44;;;;;;;6.80;5.70;;;;;;;10.69;53.43;101407.10;107061;1263;25424;-54
2023/12/15 01:17:11;;;;;;;8.80;5.90;;;;;;;10.69;53.35;101408.67;106932;1251;25395;-54
2023/12/15 01:19:38;;;;;;;6.40;5.60;;;;;;;10.70;53.39;101405.52;106892;1272;25417;-54
2023/12/15 01:22:05;;;;;;;5.50;4.90;;;;;;;10.70;53.16;101411.44;106961;1267;25450;-54
2023/12/15 01:24:32;;;;;;;6.80;5.10;;;;;;;10.67;53.05;101420.14;107143;1254;25347;-54
2023/12/15 01:26:59;;;;;;;6.70;5.70;;;;;;;10.68;53.29;101436.61;107029;1257;25353;-55
2023/12/15 01:29:26;;;;;;;8.40;5.70;;;;;;;10.68;53.10;101439.23;107067;1255;24262;-54
2023/12/15 01:31:53;;;;;;;5.80;4.90;;;;;;;10.69;53.08;101441.64;106932;1258;22522;-54
2023/12/15 01:34:19;;;;;;;6.00;5.30;;;;;;;10.71;52.93;101441.44;107112;1263;25424;-54
2023/12/15 01:36:46;;;;;;;5.40;4.60;;;;;;;10.70;52.77;101440.59;107074;1254;22520;-54
2023/12/15 01:39:13;;;;;;;7.80;4.50;;;;;;;10.67;52.49;101446.34;106972;1258;23437;-54
2023/12/15 01:41:40;;;;;;;6.10;5.10;;;;;;;10.65;52.70;101452.77;107157;1254;25335;-54
2023/12/15 01:44:07;;;;;;;5.60;4.90;;;;;;;10.64;52.56;101455.58;106369;1255;1003092;-54
2023/12/15 01:46:34;;;;;;;6.90;5.20;;;;;;;10.65;52.58;101444.12;107129;1262;22519;-55
2023/12/15 01:49:01;;;;;;;5.00;4.50;;;;;;;10.61;52.23;101454.04;107094;1254;25432;-54
2023/12/15 01:51:28;;;;;;;4.80;4.20;;;;;;;10.61;52.29;101459.42;107182;1255;24128;-54
2023/12/15 01:53:55;;;;;;;6.80;4.70;;;;;;;10.60;52.36;101457.70;107074;1257;25375;-54
2023/12/15 01:56:22;;;;;;;5.10;4.60;;;;;;;10.58;52.03;101457.72;106904;1259;25344;-54
2023/12/15 01:58:49;;;;;;;5.50;4.50;;;;;;;10.56;51.91;101467.80;107030;1257;25519;-54
2023/12/15 02:01:16;;;;;;;6.10;5.50;;;;;;;10.55;51.83;101465.56;106991;1257;25448;-54
2023/12/15 02:03:44;;;;;;;6.20;5.20;;;;;;;10.54;51.84;101456.21;106872;1259;25497;-54
2023/12/15 02:06:11;;;;;;;6.20;5.10;;;;;;;10.52;51.90;101455.00;107016;1257;25366;-54
2023/12/15 02:08:43;;;;;;;6.00;4.60;;;;;;;10.50;51.93;101452.08;107053;1257;25356;-54
2023/12/15 02:11:10;;;;;;;8.50;5.10;;;;;;;10.49;51.69;101459.36;107060;1263;22581;-54
2023/12/15 02:13:37;;;;;;;5.30;4.80;;;;;;;10.49;51.62;101458.51;106897;1258;25328;-54
2023/12/15 02:16:04;;;;;;;5.70;5.10;;;;;;;10.49;51.57;101459.54;106851;1260;23175;-54
2023/12/15 02:18:31;;;;;;;5.70;5.10;;;;;;;10.49;51.61;101471.51;106310;1254;1003697;-54
2023/12/15 02:20:58;;;;;;;5.10;4.60;;;;;;;10.63;51.08;101477.95;107160;1257;25338;-54
2023/12/15 02:23:25;;;;;;;6.80;6.10;;;;;;;11.15;49.77;101478.91;107178;1254;25337;-54
2023/12/15 02:25:52;;;;;;;6.30;5.30;;;;;;;11.25;48.94;101476.70;106454;1254;1003041;-54
2023/12/15 02:28:19;;;;;;;7.00;5.00;;;;;;;11.27;48.80;101485.88;107098;1254;25356;-54
2023/12/15 02:30:46;;;;;;;7.20;6.00;;;;;;;11.28;48.71;101491.77;107104;1263;25375;-54
2023/12/15 02:33:14;;;;;;;6.00;5.40;;;;;;;11.27;48.66;101495.26;106209;1256;1003432;-57
2023/12/15 02:35:42;;;;;;;7.70;5.80;;;;;;;11.22;48.40;101500.54;106996;1256;25347;-57
2023/12/15 02:38:09;;;;;;;7.90;6.00;;;;;;;10.76;49.67;101502.45;107022;1257;24219;-54
2023/12/15 02:40:36;;;;;;;7.00;5.60;;;;;;;11.11;49.02;101508.67;106914;1254;22529;-56
2023/12/15 02:43:03;;;;;;;6.40;5.80;;;;;;;11.20;48.59;101519.66;106821;1257;25423;-53
2023/12/15 02:45:30;;;;;;;6.50;5.90;;;;;;;11.20;48.55;101529.56;106785;1257;24181;-53
2023/12/15 02:47:57;;;;;;;6.60;6.00;;;;;;;11.21;48.45;101541.02;106812;1254;25420;-53
2023/12/15 02:50:24;;;;;;;7.00;6.30;;;;;;;11.22;48.51;101551.59;106819;1254;25369;-53
2023/12/15 02:52:51;;;;;;;6.50;5.80;;;;;;;11.22;48.41;101554.72;107059;1257;25362;-53
2023/12/15 02:55:18;;;;;;;7.10;6.40;;;;;;;11.23;48.41;101561.65;107077;1254;25487;-53
2023/12/15 02:57:45;;;;;;;6.10;5.50;;;;;;;11.23;48.40;101573.11;107066;1254;25532;-53
2023/12/15 03:00:14;;;;;;;7.00;5.70;;;;;;;11.27;48.25;101583.49;107021;1263;25496;-54
2023/12/15 03:02:41;;;;;;;7.40;6.40;;;;;;;11.26;48.41;101590.98;107154;1256;22578;-54
2023/12/15 03:05:08;;;;;;;6.80;6.10;;;;;;;11.29;48.36;101597.02;107117;1259;25337;-54
2023/12/15 03:07:36;;;;;;;6.40;5.80;;;;;;;10.75;49.32;101600.69;107075;1254;24467;-54
2023/12/15 03:10:04;;;;;;;8.20;6.90;;;;;;;11.09;48.75;101611.30;107102;1256;25353;-53
2023/12/15 03:12:32;;;;;;;7.10;6.40;;;;;;;11.29;48.30;101619.08;106860;1270;25424;-53
2023/12/15 03:14:59;;;;;;;8.00;6.70;;;;;;;11.31;48.16;101620.45;106912;1269;25338;-53
2023/12/15 03:17:26;;;;;;;7.20;6.50;;;;;;;11.30;47.85;101621.33;106848;1264;25411;-53
2023/12/15 03:19:54;;;;;;;8.90;6.50;;;;;;;11.31;48.20;101627.56;107096;1257;25376;-53
2023/12/15 03:22:21;;;;;;;6.70;5.90;;;;;;;11.33;48.39;101630.66;106676;1259;22573;-53
2023/12/15 03:24:48;;;;;;;7.30;6.50;;;;;;;11.35;48.43;101638.45;106093;1254;1002989;-54
2023/12/15 03:27:15;;;;;;;6.50;5.80;;;;;;;11.37;48.14;101645.04;106852;1257;25347;-54
2023/12/15 03:29:42;;;;;;;7.40;6.50;;;;;;;11.36;47.99;101647.84;106898;1264;25347;-54
2023/12/15 03:32:08;;;;;;;7.20;6.40;;;;;;;11.36;48.22;101650.08;106539;1259;24220;-54
2023/12/15 03:34:35;;;;;;;6.80;6.00;;;;;;;11.39;48.47;101654.75;106678;1259;25414;-53
2023/12/15 03:37:03;;;;;;;6.90;6.20;;;;;;;11.41;48.28;101657.34;106863;1266;24221;-53
2023/12/15 03:39:30;;;;;;;7.10;6.20;;;;;;;11.41;48.13;101661.16;106907;1257;22933;-53
2023/12/15 03:41:57;;;;;;;7.30;6.60;;;;;;;11.40;48.18;101669.86;107003;1257;25372;-53
2023/12/15 03:44:24;;;;;;;7.10;5.90;;;;;;;11.40;48.11;101677.67;106382;1254;1003463;-53
2023/12/15 03:46:51;;;;;;;6.90;6.20;;;;;;;11.41;48.33;101686.35;107107;1257;25335;-54
2023/12/15 03:49:18;;;;;;;7.10;6.30;;;;;;;11.44;48.30;101685.80;106815;1266;25328;-54
2023/12/15 03:51:45;;;;;;;6.50;5.90;;;;;;;11.44;48.10;101687.19;106924;1256;22531;-54
2023/12/15 03:54:12;;;;;;;7.20;6.40;;;;;;;11.44;48.01;101688.41;106873;1260;22643;-53
2023/12/15 03:56:39;;;;;;;6.20;5.30;;;;;;;11.44;48.07;101689.29;106835;1267;25376;-53
2023/12/15 03:59:06;;;;;;;6.80;6.10;;;;;;;11.44;47.92;101687.37;107117;1257;25500;-53
2023/12/15 04:01:33;;;;;;;6.80;6.20;;;;;;;11.44;47.91;101692.40;106836;1260;25446;-53
2023/12/15 04:04:00;;;;;;;6.10;5.20;;;;;;;11.43;47.90;101695.02;107056;1257;25375;-53
2023/12/15 04:06:26;;;;;;;6.10;5.00;;;;;;;11.45;48.06;101698.98;106908;1257;25497;-54
2023/12/15 04:08:53;;;;;;;6.40;5.70;;;;;;;11.48;47.91;101703.32;107054;1263;22600;-53
2023/12/15 04:11:21;;;;;;;6.70;5.40;;;;;;;11.48;47.82;101702.79;107163;1257;25449;-54
2023/12/15 04:13:48;;;;;;;5.20;4.70;;;;;;;11.46;47.59;101695.17;106427;1257;1002861;-53
2023/12/15 04:16:15;;;;;;;6.60;6.00;;;;;;;11.45;47.65;101697.08;106838;1256;25343;-53
2023/12/15 04:18:41;;;;;;;6.40;5.70;;;;;;;11.45;47.60;101695.70;107148;1257;25461;-53
2023/12/15 04:21:10;;;;;;;5.80;5.20;;;;;;;11.44;47.77;101706.65;107193;1257;25357;-53
2023/12/15 04:23:37;;;;;;;6.40;5.80;;;;;;;11.45;47.77;101708.37;106920;1259;25339;-54
2023/12/15 04:26:04;;;;;;;7.00;6.20;;;;;;;11.44;47.52;101694.30;107170;1257;25337;-53
2023/12/15 04:28:31;;;;;;;6.40;5.80;;;;;;;11.44;47.59;101699.88;107072;1257;25415;-53
2023/12/15 04:30:58;;;;;;;6.20;5.60;;;;;;;11.45;47.73;101704.39;107197;1263;25350;-55
2023/12/15 04:33:25;;;;;;;7.40;5.30;;;;;;;11.45;47.55;101712.89;106945;1263;25331;-56
2023/12/15 04:35:52;;;;;;;6.80;6.10;;;;;;;11.46;47.53;101707.16;106124;1256;1002994;-55
2023/12/15 04:38:19;;;;;;;6.50;5.80;;;;;;;11.45;47.54;101705.08;106854;1254;25360;-54
2023/12/15 04:40:46;;;;;;;6.20;5.60;;;;;;;11.44;47.58;101707.34;106833;1257;25341;-54
2023/12/15 04:43:13;;;;;;;7.50;5.50;;;;;;;11.41;47.49;101710.15;106090;1266;1003625;-54
2023/12/15 04:45:40;;;;;;;6.50;5.80;;;;;;;11.40;47.58;101706.70;107047;1265;25372;-54
2023/12/15 04:48:07;;;;;;;6.00;5.40;;;;;;;11.40;47.65;101713.63;107137;1263;25494;-54
2023/12/15 04:50:35;;;;;;;6.00;5.40;;;;;;;11.43;47.69;101727.52;107187;1257;25334;-54
2023/12/15 04:53:04;;;;;;;6.20;5.60;;;;;;;11.45;47.79;101735.83;106929;1269;22645;-54
2023/12/15 04:55:31;;;;;;;6.40;5.70;;;;;;;11.44;47.75;101739.65;107176;1263;25372;-54
2023/12/15 04:57:58;;;;;;;6.30;5.70;;;;;;;11.42;47.38;101746.29;107126;1254;24275;-54
2023/12/15 05:00:25;;;;;;;7.20;5.80;;;;;;;11.42;47.59;101750.98;107165;1258;25391;-54
2023/12/15 05:02:52;;;;;;;6.20;5.60;;;;;;;11.42;47.66;101756.19;106766;1274;25497;-54
2023/12/15 05:05:19;;;;;;;6.80;6.00;;;;;;;11.41;47.48;101762.27;107103;1257;25338;-54
2023/12/15 05:07:46;;;;;;;6.90;6.10;;;;;;;11.40;47.60;101762.11;107145;1256;25414;-54
2023/12/15 05:10:13;;;;;;;7.10;6.10;;;;;;;11.37;47.77;101764.02;107110;1263;25353;-54
2023/12/15 05:12:40;;;;;;;6.80;6.10;;;;;;;11.34;47.32;101774.84;107157;1267;25395;-54
2023/12/15 05:15:08;;;;;;;6.50;5.90;;;;;;;11.33;47.53;101777.62;107140;1256;25338;-54
2023/12/15 05:17:35;;;;;;;7.20;5.90;;;;;;;11.33;47.74;101782.83;107153;1254;22562;-54
2023/12/15 05:20:03;;;;;;;6.20;5.50;;;;;;;11.35;47.63;101785.60;107196;1257;25338;-54
2023/12/15 05:22:30;;;;;;;6.60;5.90;;;;;;;11.35;47.64;101790.63;106905;1266;24521;-55
2023/12/15 05:24:57;;;;;;;6.00;5.40;;;;;;;11.36;47.66;101803.14;107094;1254;22533;-54
2023/12/15 05:27:24;;;;;;;6.40;5.70;;;;;;;11.37;47.80;101802.59;106432;1269;25393;-54
2023/12/15 05:29:51;;;;;;;6.20;5.50;;;;;;;11.38;47.65;101808.69;106667;1268;25494;-54
2023/12/15 05:32:18;;;;;;;6.20;5.60;;;;;;;11.39;47.55;101814.25;106845;1257;25366;-54
2023/12/15 05:34:45;;;;;;;7.70;5.80;;;;;;;11.40;47.52;101821.87;105627;1254;2003001;-54
2023/12/15 05:37:13;;;;;;;6.10;5.60;;;;;;;11.40;47.57;101837.69;107117;1254;25328;-54
2023/12/15 05:39:44;;;;;;;5.90;5.40;;;;;;;11.43;47.60;101841.30;107046;1254;24033;-54
2023/12/15 05:42:11;;;;;;;5.90;5.40;;;;;;;11.43;47.46;101837.48;106113;1258;1003450;-54
2023/12/15 05:44:41;;;;;;;6.60;5.80;;;;;;;11.40;47.35;101829.88;106833;1261;25416;-54
2023/12/15 05:47:09;;;;;;;6.90;6.20;;;;;;;11.37;47.48;101826.06;106907;1257;25954;-54
2023/12/15 05:49:40;;;;;;;8.70;6.30;;;;;;;11.36;47.47;101822.41;106838;1254;25372;-54
2023/12/15 05:52:08;;;;;;;6.60;5.90;;;;;;;11.37;47.47;101829.89;107095;1255;25625;-54
2023/12/15 05:54:39;;;;;;;6.50;5.80;;;;;;;11.36;47.35;101838.05;107127;1263;22561;-54
2023/12/15 05:57:06;;;;;;;6.70;6.10;;;;;;;11.35;47.28;101834.94;106869;1261;25446;-55
2023/12/15 05:59:34;;;;;;;6.60;5.80;;;;;;;11.33;47.30;101839.98;106735;1259;24780;-54
2023/12/15 06:02:02;;;;;;;10.70;5.90;;;;;;;11.32;47.34;101838.95;106728;1267;25488;-54
2023/12/15 06:04:29;;;;;;;6.60;5.90;;;;;;;11.31;47.37;101843.64;106887;1261;25395;-54
2023/12/15 06:06:56;;;;;;;5.90;5.30;;;;;;;11.31;47.45;101846.60;107135;1257;25423;-55
2023/12/15 06:09:23;;;;;;;6.00;5.40;;;;;;;11.33;47.47;101851.64;107088;1257;25335;-54
2023/12/15 06:11:50;;;;;;;6.70;6.00;;;;;;;11.32;47.28;101855.28;106231;1264;1003561;-54
2023/12/15 06:14:18;;;;;;;6.10;5.50;;;;;;;11.31;47.21;101857.73;106945;1254;25347;-54
2023/12/15 06:16:45;;;;;;;8.60;5.50;;;;;;;11.31;47.42;101868.83;107160;1260;25500;-54
2023/12/15 06:19:12;;;;;;;7.20;6.30;;;;;;;11.34;47.57;101875.42;107158;1267;25375;-54
2023/12/15 06:21:39;;;;;;;8.70;5.90;;;;;;;11.34;47.24;101884.63;107086;1264;26606;-54
2023/12/15 06:24:06;;;;;;;6.60;5.90;;;;;;;11.33;47.28;101886.70;106978;1264;25478;-54
2023/12/15 06:26:33;;;;;;;6.10;5.40;;;;;;;11.31;47.20;101892.45;106394;1259;1002819;-55
2023/12/15 06:29:00;;;;;;;6.70;6.00;;;;;;;11.30;47.18;101896.46;106987;1257;25422;-54
2023/12/15 06:31:29;;;;;;;6.00;5.10;;;;;;;11.31;47.22;101900.30;105931;1263;1003651;-56
2023/12/15 06:33:56;;;;;;;6.30;5.70;;;;;;;11.31;47.08;101910.01;106710;1260;25405;-54
2023/12/15 06:36:23;;;;;;;5.70;5.10;;;;;;;11.31;46.91;101909.83;106732;1257;25383;-55
2023/12/15 06:38:52;;;;;;;5.70;5.20;;;;;;;11.33;46.98;101913.12;106816;1257;25369;-54
2023/12/15 06:41:20;;;;;;;8.30;5.20;;;;;;;11.33;46.89;101921.80;106093;1258;1003197;-54
2023/12/15 06:43:48;;;;;;;6.00;5.40;;;;;;;11.34;47.00;101930.48;107046;1256;25335;-55
2023/12/15 06:46:14;;;;;;;8.90;5.30;;;;;;;11.35;46.93;101936.05;106719;1268;25346;-54
2023/12/15 06:48:41;;;;;;;7.20;6.00;;;;;;;11.34;46.85;101929.27;106029;1257;1003491;-55
2023/12/15 06:51:08;;;;;;;6.00;5.40;;;;;;;11.32;47.00;101934.14;106840;1263;25335;-54
2023/12/15 06:53:36;;;;;;;6.30;5.70;;;;;;;11.30;47.03;101944.05;106422;1267;1003585;-54
2023/12/15 06:56:04;;;;;;;6.40;5.70;;;;;;;11.30;47.06;101952.75;106881;1270;25472;-54
2023/12/15 06:58:31;;;;;;;6.40;5.70;;;;;;;11.29;47.07;101950.84;106787;1259;25496;-55
2023/12/15 07:00:58;;;;;;;6.30;5.60;;;;;;;11.28;47.19;101955.89;107105;1263;25218;-55
2023/12/15 07:03:24;;;;;;;8.40;5.80;;;;;;;11.29;47.29;101962.13;107056;1273;22549;-54
2023/12/15 07:05:52;;;;;;;6.80;6.10;;;;;;;11.30;47.06;101965.25;107129;1261;25329;-54
2023/12/15 07:08:19;;;;;;;7.10;6.40;;;;;;;11.28;47.25;101970.65;106745;1267;25375;-54
2023/12/15 07:10:46;;;;;;;7.40;6.60;;;;;;;11.23;47.05;101977.98;106872;1264;23378;-55
2023/12/15 07:13:13;;;;;;;7.90;6.80;;;;;;;11.19;47.04;101987.20;106070;1259;1002890;-55
2023/12/15 07:15:40;;;;;;;7.90;7.10;;;;;;;11.16;47.14;102014.83;106838;1266;25574;-55
2023/12/15 07:18:07;;;;;;;7.40;6.50;;;;;;;11.13;47.24;102024.57;107133;1264;25365;-55
2023/12/15 07:20:34;;;;;;;7.40;6.70;;;;;;;11.13;47.27;102026.48;106132;1266;1003066;-53
2023/12/15 07:23:01;;;;;;;8.10;7.20;;;;;;;11.15;47.22;102033.95;107094;1257;25421;-53
2023/12/15 07:25:28;;;;;;;7.60;6.80;;;;;;;11.18;47.29;102034.98;107073;1257;24221;-53
2023/12/15 07:27:56;;;;;;;8.00;6.80;;;;;;;11.21;47.25;102037.05;107108;1267;25497;-53
2023/12/15 07:30:23;;;;;;;7.00;6.40;;;;;;;11.23;47.29;102035.29;106826;1267;25367;-53
2023/12/15 07:32:50;;;;;;;7.80;6.40;;;;;;;11.24;47.05;102041.90;106610;1269;25587;-55
2023/12/15 07:35:17;;;;;;;8.00;7.20;;;;;;;11.24;46.99;102051.79;106930;1261;25347;-55
2023/12/15 07:37:58;;;;;;;7.30;6.60;;;;;;;11.25;47.20;102056.83;107080;1257;25360;-53
2023/12/15 07:40:25;;;;;;;8.00;7.10;;;;;;;11.25;46.93;102055.61;107090;1267;25372;-53
2023/12/15 07:42:52;;;;;;;6.60;5.90;;;;;;;11.18;46.99;102055.29;106785;1260;25484;-55
2023/12/15 07:45:20;;;;;;;7.30;6.50;;;;;;;11.11;46.75;102053.76;107134;1263;22606;-59
2023/12/15 07:47:47;;;;;;;8.10;7.30;;;;;;;11.06;47.04;102053.42;106944;1266;25411;-55
2023/12/15 07:50:14;;;;;;;7.90;7.10;;;;;;;11.03;46.99;102057.60;106991;1263;25363;-56
2023/12/15 07:52:41;;;;;;;8.00;7.20;;;;;;;10.98;46.90;102057.61;107014;1257;25356;-54
2023/12/15 07:55:08;;;;;;;8.60;7.10;;;;;;;10.93;46.74;102058.84;107109;1257;22524;-54
2023/12/15 07:57:36;;;;;;;8.60;7.60;;;;;;;10.89;46.74;102065.97;105956;1273;1003357;-54
2023/12/15 08:00:05;;;;;;;8.80;7.90;;;;;;;10.85;46.96;102073.09;106157;1273;1002946;-54
2023/12/15 08:02:38;;;;;;;10.00;7.30;;;;;;;10.85;46.95;102085.41;106952;1266;25375;-54
2023/12/15 08:05:06;;;;;;;7.40;6.70;;;;;;;10.85;46.76;102093.40;106845;1267;25347;-55
2023/12/15 08:07:33;;;;;;;9.00;8.00;;;;;;;10.84;46.77;102099.66;106814;1266;22579;-55
2023/12/15 08:10:01;;;;;;;8.50;7.70;;;;;;;10.82;46.45;102100.35;107050;1268;25497;-54
2023/12/15 08:12:28;;;;;;;8.80;7.70;;;;;;;10.79;46.53;102101.40;106421;1266;1002780;-54
2023/12/15 08:14:57;;;;;;;8.90;8.00;;;;;;;10.76;46.72;102105.40;107060;1267;25398;-54
2023/12/15 08:17:25;;;;;;;8.70;7.90;;;;;;;10.74;46.79;102112.34;107077;1264;24030;-55
2023/12/15 08:19:52;;;;;;;8.30;7.50;;;;;;;10.75;46.90;102108.34;106789;1274;25369;-54
2023/12/15 08:22:19;;;;;;;8.90;7.90;;;;;;;10.75;46.89;102101.40;107072;1260;25423;-55
2023/12/15 08:24:46;;;;;;;8.30;7.40;;;;;;;10.74;46.92;102103.66;107137;1265;25481;-55
2023/12/15 08:27:15;;;;;;;6.40;5.80;;;;;;;10.74;46.98;102110.95;106716;1260;25341;-54
2023/12/15 08:29:43;;;;;;;7.60;6.80;;;;;;;10.73;47.14;102110.61;106095;1274;1003358;-56
2023/12/15 08:32:10;;;;;;;7.10;6.40;;;;;;;10.76;47.14;102106.27;106965;1260;25351;-54
2023/12/15 08:34:38;;;;;;;6.70;5.90;;;;;;;10.74;47.11;102115.11;107080;1257;25331;-54
2023/12/15 08:37:04;;;;;;;6.40;5.80;;;;;;;10.04;48.35;102118.52;106088;1264;1003765;-54
2023/12/15 08:39:31;;;;;;;5.50;5.00;;;;;;;9.84;48.87;102123.83;107105;1260;25353;-54
2023/12/15 08:41:58;;;;;;;6.00;5.40;;;;;;;9.80;49.01;102126.08;106704;1263;26640;-54
2023/12/15 08:44:26;;;;;;;6.30;5.40;;;;;;;9.78;49.15;102141.14;105874;1266;1003129;-54
2023/12/15 08:47:01;;;;;;;6.60;5.80;;;;;;;9.75;49.40;102140.95;106943;1263;22529;-54
2023/12/15 08:49:28;;;;;;;5.90;5.30;;;;;;;9.79;49.33;102136.81;106735;1263;25493;-54
2023/12/15 08:51:55;;;;;;;6.60;5.90;;;;;;;9.81;49.15;102132.14;106853;1264;25356;-54
2023/12/15 08:54:26;;;;;;;6.30;5.70;;;;;;;9.81;49.07;102136.64;106852;1263;23262;-54
2023/12/15 08:56:54;;;;;;;6.40;5.80;;;;;;;9.75;49.26;102134.04;107017;1251;22809;-54
2023/12/15 08:59:21;;;;;;;6.00;5.40;;;;;;;9.69;49.44;102135.73;106795;1259;24172;-54
2023/12/15 09:01:48;;;;;;;6.30;5.70;;;;;;;9.70;49.74;102144.77;107046;1263;22547;-54
2023/12/15 09:04:15;;;;;;;6.20;5.00;;;;;;;9.70;49.55;102159.84;107034;1267;25372;-54
2023/12/15 09:06:43;;;;;;;6.40;5.40;;;;;;;9.67;49.24;102162.59;106253;1270;1003640;-54
2023/12/15 09:09:14;;;;;;;7.40;5.80;;;;;;;9.64;48.79;102167.42;107204;1267;26515;-54
2023/12/15 09:11:41;;;;;;;6.90;6.00;;;;;;;9.67;49.09;102174.55;106997;1251;22542;-54
2023/12/15 09:14:08;;;;;;;7.80;7.00;;;;;;;9.71;49.11;102177.68;107181;1254;25338;-54
2023/12/15 09:16:35;;;;;;;7.20;6.30;;;;;;;9.74;48.88;102179.77;107116;1264;25505;-54
2023/12/15 09:19:02;;;;;;;9.90;7.30;;;;;;;9.75;48.83;102179.77;106991;1267;25417;-54
2023/12/15 09:21:30;;;;;;;7.80;7.00;;;;;;;9.70;48.35;102181.83;106849;1257;25421;-54
2023/12/15 09:23:57;;;;;;;7.70;6.60;;;;;;;9.65;48.61;102179.56;106770;1270;25337;-54
2023/12/15 09:26:26;;;;;;;10.10;8.40;;;;;;;9.65;48.74;102178.87;105931;1255;1002928;-54
2023/12/15 09:28:53;;;;;;;9.80;8.80;;;;;;;9.63;48.86;102179.55;106895;1273;24386;-54
2023/12/15 09:31:20;;;;;;;9.20;8.20;;;;;;;9.61;49.18;102186.98;106896;1266;25534;-54
2023/12/15 09:33:48;;;;;;;9.80;8.80;;;;;;;9.61;49.41;102188.38;106818;1260;25903;-54
2023/12/15 09:36:15;;;;;;;9.00;8.10;;;;;;;9.59;49.62;102188.71;106818;1270;25593;-54
2023/12/15 09:38:42;;;;;;;9.30;8.20;;;;;;;9.59;49.44;102189.23;106851;1254;25554;-55
2023/12/15 09:41:09;;;;;;;8.50;7.20;;;;;;;9.55;49.30;102196.31;106923;1264;23168;-55
2023/12/15 09:43:36;;;;;;;8.80;7.70;;;;;;;9.50;49.23;102197.84;106161;1266;1003675;-55
2023/12/15 09:46:04;;;;;;;7.60;6.80;;;;;;;9.46;48.93;102203.36;106868;1255;25351;-55
2023/12/15 09:48:31;;;;;;;7.60;6.60;;;;;;;9.45;49.06;102212.02;106996;1270;22527;-55
2023/12/15 09:51:02;;;;;;;8.40;7.00;;;;;;;9.45;49.02;102205.09;107134;1254;25412;-55
2023/12/15 09:53:32;;;;;;;7.90;7.10;;;;;;;9.48;49.13;102209.61;107255;1257;25494;-55
2023/12/15 09:55:59;;;;;;;7.00;6.30;;;;;;;9.51;49.06;102209.46;107028;1257;26535;-55
2023/12/15 09:58:29;;;;;;;6.80;6.10;;;;;;;9.53;48.91;102204.96;106150;1253;1002943;-55
2023/12/15 10:00:57;;;;;;;10.80;9.00;;;;;;;9.55;48.99;102203.60;106978;1257;25366;-55
2023/12/15 10:03:24;;;;;;;12.70;8.90;;;;;;;9.56;49.03;102202.72;107030;1263;25465;-56
2023/12/15 10:05:51;;;;;;;11.00;9.90;;;;;;;9.55;48.74;102200.47;106999;1255;23385;-55
2023/12/15 10:08:23;;;;;;;12.50;11.00;;;;;;;9.53;48.94;102199.06;107110;1257;26627;-56
2023/12/15 10:10:51;;;;;;;;;;;;;;;9.52;48.96;102202.01;106790;1257;26496;-55
2023/12/15 10:13:18;;;;;;;12.40;10.00;;;;;;;9.51;48.99;102212.59;106608;1260;24210;-53
2023/12/15 10:15:49;;;;;;;10.90;9.80;;;;;;;9.46;49.16;102217.40;107048;1257;25379;-53
2023/12/15 10:18:16;;;;;;;11.40;10.20;;;;;;;9.43;49.64;102219.80;106428;1274;25487;-53
2023/12/15 10:20:47;;;;;;;10.00;9.00;;;;;;;9.40;49.75;102216.32;106061;1257;1002487;-53
2023/12/15 10:23:14;;;;;;;11.20;8.70;;;;;;;9.41;49.86;102218.58;106284;1263;25338;-54
2023/12/15 10:25:48;;;;;;;9.00;8.00;;;;;;;9.42;49.81;102215.64;106931;1270;25386;-54
2023/12/15 10:28:15;;;;;;;9.40;8.40;;;;;;;9.41;49.57;102218.39;107005;1258;25980;-54
2023/12/15 10:30:43;;;;;;;9.20;8.20;;;;;;;9.41;49.73;102222.21;106814;1269;25376;-54
2023/12/15 10:33:10;;;;;;;9.90;8.90;;;;;;;9.41;49.73;102223.94;107005;1263;26776;-54
2023/12/15 10:35:38;;;;;;;9.10;8.20;;;;;;;9.39;49.74;102221.69;106822;1269;22627;-54
2023/12/15 10:38:07;;;;;;;8.10;7.30;;;;;;;9.40;50.04;102225.15;106823;1267;25526;-54
2023/12/15 10:40:34;;;;;;;9.30;8.30;;;;;;;9.45;50.23;102231.24;106966;1267;25435;-54
2023/12/15 10:43:01;;;;;;;9.30;8.40;;;;;;;9.49;50.11;102224.51;107070;1252;25334;-54
2023/12/15 10:45:28;;;;;;;9.10;8.20;;;;;;;9.51;49.75;102232.33;106871;1257;24320;-54
2023/12/15 10:47:57;;;;;;;9.90;8.80;;;;;;;9.49;49.77;102235.23;106951;1254;22517;-54
2023/12/15 10:50:24;;;;;;;9.30;8.40;;;;;;;9.46;49.71;102232.81;106852;1255;22630;-54
2023/12/15 10:52:52;;;;;;;9.60;8.60;;;;;;;9.46;49.74;102234.55;106795;1270;24342;-54
2023/12/15 10:55:23;;;;;;;9.90;8.90;;;;;;;9.45;49.75;102243.02;106808;1258;25497;-54
2023/12/15 10:57:51;;;;;;;8.70;7.80;;;;;;;9.47;49.47;102252.75;106866;1261;25356;-54
2023/12/15 11:00:19;;;;;;;9.70;8.80;;;;;;;9.49;49.27;102260.53;106985;1254;25426;-54
2023/12/15 11:02:46;;;;;;;10.80;9.30;;;;;;;9.53;49.57;102261.60;106742;1254;25365;-54
2023/12/15 11:05:13;;;;;;;9.40;8.50;;;;;;;9.55;49.64;102262.67;105884;1257;1003663;-54
2023/12/15 11:07:42;;;;;;;9.90;8.90;;;;;;;9.55;49.34;102264.73;106852;1260;25590;-54
2023/12/15 11:10:09;;;;;;;9.60;8.60;;;;;;;9.53;48.98;102257.97;106278;1267;25356;-54
2023/12/15 11:12:37;;;;;;;11.50;8.90;;;;;;;9.51;48.92;102254.84;106179;1255;1003511;-54
2023/12/15 11:15:18;;;;;;;9.80;8.40;;;;;;;9.48;48.81;102261.23;106961;1266;25387;-54
2023/12/15 11:17:49;;;;;;;9.20;8.20;;;;;;;9.42;49.04;102266.04;107152;1266;22613;-54